Aérodrome :
LOGIN :

S'inscrire | Disclaimer

   EN    FR    IT 

 










Légende :    VFR   VFR Marginal   IFR   IFR Intensif   IFR Très Intensif
Visi : 
Plafond : 
>= 8 km
>= 3000ft
5 à 8 km
1000 à 3000 ft
1500m à 5 km
500 à 1000 ft
800 à 1500m
200 à 500 ft
< 800m
< 200 ft
Symboles :   Orages  Brouillard  Fortes neiges  Fortes précipitations  Vent > 20 kt
SIGMETs :   Divers  Orages  Givrage  Turbulence  Onde Orograph.  Cendres Volcan.






- Altitude de l'aérodrome : 267 ft


EGDR - Culdrose Navy

DERNIER METAR :
  • 230850Z 30011KT 9999 FEW030 17/12 Q1021 TEMPO 8000 -SHRA SCT010 RMK BLU TEMPO GRN

METARs EXPIRÉS :
  • 230820Z 29012KT 9999 FEW010 17/13 Q1020 TEMPO 8000 -SHRA SCT010 RMK BLU TEMPO GRN
  • 230750Z 29010KT 9999 FEW010 17/13 Q1020 TEMPO 8000 -SHRA SCT010 RMK BLU TEMPO GRN
  • 230720Z 29010KT 9999 FEW010 SCT035 16/13 Q1020 TEMPO 8000 -SHRA SCT010 RMK BLU TEMPO GRN
  • 230650Z 29011KT 9999 FEW010 SCT040 16/14 Q1020 TEMPO 8000 -SHRA SCT010 RMK BLU TEMPO GRN
  • 230620Z 29010KT 9999 FEW010 SCT040 15/13 Q1019 TEMPO 8000 -SHRA SCT010 RMK BLU TEMPO GRN
  • 230550Z AUTO 29010KT 9999 OVC027/// 15/13 Q1019
  • 230520Z AUTO 28009KT 9999 BKN029/// 15/13 Q1019
  • 230450Z AUTO 29010KT 9999 // OVC032/// 15/13 Q1019
  • 230420Z AUTO 29011KT 9999 // FEW012/// OVC032/// 15/13 Q1018

TAF TAF EGDR
Valide du 23 à 09h jusqu'au 23 à 18h UTC


230731Z 2309/2318 29009KT 9999 FEW010 BKN030
TEMPO 2309/2316 SCT015
PROB30
TEMPO 2309/2311 8000 -SHRA SCT010
BECMG 2316/2318 32008KT



MET'MAP, la Météo Aéronautique d'un coup d'oeil ! - Copyright ORBIFLY Décembre 2007 - Disclaimer

ORBIFLY MET'MAP TEAM :

Programmation & Développement : Alexandra Zaïnal
Sur une idée originale de : Baudouin d'Aumeries
Soutien technique & logistique : Manuel Goepfert
Assistance : Marc-Olivier Méhu




SOURCES & CREDITS :

   NOAA